<?xml version='1.0' encoding='UTF-8'?>
<gpx version="1.1" creator="https://www.komoot.de" xmlns="http://www.topografix.com/GPX/1/1" xmlns:xsi="http://www.w3.org/2001/XMLSchema-instance" xsi:schemaLocation="http://www.topografix.com/GPX/1/1 http://www.topografix.com/GPX/1/1/gpx.xsd">
  <metadata>
    <name>Dondena - Col Pontonnet (8)</name>
    <author>
      <link href="https://www.komoot.de">
        <text>komoot</text>
        <type>text/html</type>
      </link>
    </author>
  </metadata>
  <trk>
    <name>Dondena - Col Pontonnet (8)</name>
    <trkseg>
      <trkpt lat="45.616481" lon="7.555677">
        <ele>2100.466579</ele>
        <time>2022-11-14T09:04:27.651Z</time>
      </trkpt>
      <trkpt lat="45.616417" lon="7.555386">
        <ele>2100.466579</ele>
        <time>2022-11-14T09:04:52.983Z</time>
      </trkpt>
      <trkpt lat="45.616563" lon="7.555075">
        <ele>2100.466579</ele>
        <time>2022-11-14T09:05:22.396Z</time>
      </trkpt>
      <trkpt lat="45.616641" lon="7.554570">
        <ele>2100.466579</ele>
        <time>2022-11-14T09:06:05.278Z</time>
      </trkpt>
      <trkpt lat="45.616613" lon="7.554341">
        <ele>2101.491293</ele>
        <time>2022-11-14T09:06:25.435Z</time>
      </trkpt>
      <trkpt lat="45.616580" lon="7.554304">
        <ele>2101.919453</ele>
        <time>2022-11-14T09:06:30.395Z</time>
      </trkpt>
      <trkpt lat="45.616530" lon="7.554264">
        <ele>2102.504409</ele>
        <time>2022-11-14T09:06:37.221Z</time>
      </trkpt>
      <trkpt lat="45.616398" lon="7.554114">
        <ele>2104.225901</ele>
        <time>2022-11-14T09:06:59.511Z</time>
      </trkpt>
      <trkpt lat="45.616324" lon="7.553847">
        <ele>2106.276796</ele>
        <time>2022-11-14T09:07:23.748Z</time>
      </trkpt>
      <trkpt lat="45.616112" lon="7.553967">
        <ele>2108.604664</ele>
        <time>2022-11-14T09:07:59.742Z</time>
      </trkpt>
      <trkpt lat="45.616054" lon="7.553694">
        <ele>2110.642136</ele>
        <time>2022-11-14T09:08:26.055Z</time>
      </trkpt>
      <trkpt lat="45.615654" lon="7.553316">
        <ele>2115.537414</ele>
        <time>2022-11-14T09:09:33.912Z</time>
      </trkpt>
      <trkpt lat="45.615451" lon="7.553060">
        <ele>2118.301006</ele>
        <time>2022-11-14T09:10:10.859Z</time>
      </trkpt>
      <trkpt lat="45.615176" lon="7.553078">
        <ele>2122.697029</ele>
        <time>2022-11-14T09:10:49.738Z</time>
      </trkpt>
      <trkpt lat="45.615130" lon="7.553144">
        <ele>2123.824699</ele>
        <time>2022-11-14T09:11:00.915Z</time>
      </trkpt>
      <trkpt lat="45.614934" lon="7.553202">
        <ele>2127.288035</ele>
        <time>2022-11-14T09:11:43.521Z</time>
      </trkpt>
      <trkpt lat="45.614783" lon="7.553137">
        <ele>2130.016703</ele>
        <time>2022-11-14T09:12:15.289Z</time>
      </trkpt>
      <trkpt lat="45.614150" lon="7.553077">
        <ele>2140.993738</ele>
        <time>2022-11-14T09:14:40.794Z</time>
      </trkpt>
      <trkpt lat="45.613871" lon="7.552857">
        <ele>2146.507013</ele>
        <time>2022-11-14T09:16:02.101Z</time>
      </trkpt>
      <trkpt lat="45.613475" lon="7.552784">
        <ele>2153.584683</ele>
        <time>2022-11-14T09:17:48.522Z</time>
      </trkpt>
      <trkpt lat="45.612877" lon="7.552337">
        <ele>2165.830299</ele>
        <time>2022-11-14T09:20:28.087Z</time>
      </trkpt>
      <trkpt lat="45.612310" lon="7.552127">
        <ele>2176.459193</ele>
        <time>2022-11-14T09:22:43.683Z</time>
      </trkpt>
      <trkpt lat="45.612111" lon="7.551797">
        <ele>2181.989852</ele>
        <time>2022-11-14T09:23:35.212Z</time>
      </trkpt>
      <trkpt lat="45.612235" lon="7.551671">
        <ele>2183.883786</ele>
        <time>2022-11-14T09:23:58.484Z</time>
      </trkpt>
      <trkpt lat="45.612055" lon="7.551136">
        <ele>2188.394104</ele>
        <time>2022-11-14T09:25:00.499Z</time>
      </trkpt>
      <trkpt lat="45.612106" lon="7.551103">
        <ele>2189.002113</ele>
        <time>2022-11-14T09:25:08.715Z</time>
      </trkpt>
      <trkpt lat="45.612321" lon="7.551315">
        <ele>2191.838825</ele>
        <time>2022-11-14T09:25:44.750Z</time>
      </trkpt>
      <trkpt lat="45.612553" lon="7.551282">
        <ele>2194.371017</ele>
        <time>2022-11-14T09:26:15.552Z</time>
      </trkpt>
      <trkpt lat="45.612751" lon="7.550995">
        <ele>2197.433506</ele>
        <time>2022-11-14T09:26:50.457Z</time>
      </trkpt>
      <trkpt lat="45.612908" lon="7.550544">
        <ele>2201.260741</ele>
        <time>2022-11-14T09:27:34.199Z</time>
      </trkpt>
      <trkpt lat="45.613025" lon="7.549215">
        <ele>2211.724745</ele>
        <time>2022-11-14T09:29:40.255Z</time>
      </trkpt>
      <trkpt lat="45.613327" lon="7.548225">
        <ele>2220.183555</ele>
        <time>2022-11-14T09:31:32.818Z</time>
      </trkpt>
      <trkpt lat="45.613524" lon="7.547655">
        <ele>2225.081500</ele>
        <time>2022-11-14T09:32:38.909Z</time>
      </trkpt>
      <trkpt lat="45.613812" lon="7.546539">
        <ele>2234.135979</ele>
        <time>2022-11-14T09:34:32.352Z</time>
      </trkpt>
      <trkpt lat="45.613872" lon="7.546010">
        <ele>2238.215217</ele>
        <time>2022-11-14T09:35:21.775Z</time>
      </trkpt>
      <trkpt lat="45.613877" lon="7.545426">
        <ele>2242.815880</ele>
        <time>2022-11-14T09:36:16.001Z</time>
      </trkpt>
      <trkpt lat="45.613941" lon="7.545023">
        <ele>2246.554070</ele>
        <time>2022-11-14T09:36:54.824Z</time>
      </trkpt>
      <trkpt lat="45.614126" lon="7.544716">
        <ele>2250.219507</ele>
        <time>2022-11-14T09:37:33.415Z</time>
      </trkpt>
      <trkpt lat="45.614387" lon="7.544428">
        <ele>2254.483176</ele>
        <time>2022-11-14T09:38:20.622Z</time>
      </trkpt>
      <trkpt lat="45.614694" lon="7.544142">
        <ele>2259.221776</ele>
        <time>2022-11-14T09:39:16.567Z</time>
      </trkpt>
      <trkpt lat="45.614834" lon="7.543905">
        <ele>2262.027778</ele>
        <time>2022-11-14T09:39:51.663Z</time>
      </trkpt>
      <trkpt lat="45.614798" lon="7.542825">
        <ele>2274.356751</ele>
        <time>2022-11-14T09:42:07.197Z</time>
      </trkpt>
      <trkpt lat="45.614616" lon="7.541277">
        <ele>2293.948630</ele>
        <time>2022-11-14T09:45:40.020Z</time>
      </trkpt>
      <trkpt lat="45.614151" lon="7.539177">
        <ele>2315.630550</ele>
        <time>2022-11-14T09:49:50.119Z</time>
      </trkpt>
      <trkpt lat="45.614202" lon="7.538886">
        <ele>2318.477662</ele>
        <time>2022-11-14T09:50:18.267Z</time>
      </trkpt>
      <trkpt lat="45.614188" lon="7.538428">
        <ele>2322.173673</ele>
        <time>2022-11-14T09:51:00.429Z</time>
      </trkpt>
      <trkpt lat="45.614021" lon="7.538071">
        <ele>2324.085037</ele>
        <time>2022-11-14T09:51:38.927Z</time>
      </trkpt>
      <trkpt lat="45.613979" lon="7.537362">
        <ele>2327.251720</ele>
        <time>2022-11-14T09:52:39.728Z</time>
      </trkpt>
      <trkpt lat="45.613760" lon="7.536658">
        <ele>2330.680727</ele>
        <time>2022-11-14T09:53:42.898Z</time>
      </trkpt>
      <trkpt lat="45.613752" lon="7.536589">
        <ele>2330.992001</ele>
        <time>2022-11-14T09:53:48.573Z</time>
      </trkpt>
      <trkpt lat="45.613896" lon="7.536357">
        <ele>2332.372399</ele>
        <time>2022-11-14T09:54:13.359Z</time>
      </trkpt>
      <trkpt lat="45.613903" lon="7.536136">
        <ele>2333.200560</ele>
        <time>2022-11-14T09:54:31.375Z</time>
      </trkpt>
      <trkpt lat="45.613760" lon="7.535700">
        <ele>2334.288553</ele>
        <time>2022-11-14T09:55:09.774Z</time>
      </trkpt>
      <trkpt lat="45.613261" lon="7.535290">
        <ele>2336.147566</ele>
        <time>2022-11-14T09:56:16.911Z</time>
      </trkpt>
      <trkpt lat="45.612611" lon="7.533639">
        <ele>2339.360146</ele>
        <time>2022-11-14T09:58:37.654Z</time>
      </trkpt>
      <trkpt lat="45.612609" lon="7.533408">
        <ele>2339.529124</ele>
        <time>2022-11-14T09:58:55.087Z</time>
      </trkpt>
      <trkpt lat="45.612859" lon="7.532974">
        <ele>2339.940354</ele>
        <time>2022-11-14T09:59:45.114Z</time>
      </trkpt>
      <trkpt lat="45.612843" lon="7.532712">
        <ele>2340.132722</ele>
        <time>2022-11-14T10:00:08.213Z</time>
      </trkpt>
      <trkpt lat="45.612938" lon="7.532636">
        <ele>2340.246556</ele>
        <time>2022-11-14T10:00:22.729Z</time>
      </trkpt>
      <trkpt lat="45.613029" lon="7.532558">
        <ele>2340.357504</ele>
        <time>2022-11-14T10:00:36.039Z</time>
      </trkpt>
      <trkpt lat="45.613138" lon="7.532180">
        <ele>2340.656560</ele>
        <time>2022-11-14T10:01:13.241Z</time>
      </trkpt>
      <trkpt lat="45.613144" lon="7.531829">
        <ele>2341.406474</ele>
        <time>2022-11-14T10:01:44.121Z</time>
      </trkpt>
      <trkpt lat="45.613106" lon="7.531642">
        <ele>2341.931280</ele>
        <time>2022-11-14T10:02:02.077Z</time>
      </trkpt>
      <trkpt lat="45.613129" lon="7.531332">
        <ele>2342.771428</ele>
        <time>2022-11-14T10:02:29.878Z</time>
      </trkpt>
      <trkpt lat="45.613490" lon="7.530188">
        <ele>2346.153743</ele>
        <time>2022-11-14T10:04:32.281Z</time>
      </trkpt>
      <trkpt lat="45.613600" lon="7.529024">
        <ele>2351.456443</ele>
        <time>2022-11-14T10:06:47.913Z</time>
      </trkpt>
      <trkpt lat="45.613671" lon="7.528930">
        <ele>2352.309370</ele>
        <time>2022-11-14T10:07:02.696Z</time>
      </trkpt>
      <trkpt lat="45.613496" lon="7.528764">
        <ele>2354.160475</ele>
        <time>2022-11-14T10:07:36.120Z</time>
      </trkpt>
      <trkpt lat="45.613919" lon="7.528676">
        <ele>2357.928062</ele>
        <time>2022-11-14T10:08:46.355Z</time>
      </trkpt>
      <trkpt lat="45.614027" lon="7.528567">
        <ele>2359.093284</ele>
        <time>2022-11-14T10:09:07.078Z</time>
      </trkpt>
      <trkpt lat="45.613968" lon="7.528437">
        <ele>2360.048694</ele>
        <time>2022-11-14T10:09:25.030Z</time>
      </trkpt>
      <trkpt lat="45.614192" lon="7.528298">
        <ele>2362.200995</ele>
        <time>2022-11-14T10:10:04.979Z</time>
      </trkpt>
      <trkpt lat="45.614043" lon="7.528094">
        <ele>2363.973492</ele>
        <time>2022-11-14T10:10:39.464Z</time>
      </trkpt>
      <trkpt lat="45.614011" lon="7.527952">
        <ele>2364.809949</ele>
        <time>2022-11-14T10:10:56.338Z</time>
      </trkpt>
      <trkpt lat="45.613668" lon="7.527759">
        <ele>2367.764557</ele>
        <time>2022-11-14T10:11:57.110Z</time>
      </trkpt>
      <trkpt lat="45.613712" lon="7.527613">
        <ele>2368.655891</ele>
        <time>2022-11-14T10:12:15.507Z</time>
      </trkpt>
      <trkpt lat="45.613947" lon="7.527416">
        <ele>2370.839492</ele>
        <time>2022-11-14T10:12:57.340Z</time>
      </trkpt>
      <trkpt lat="45.613876" lon="7.527316">
        <ele>2371.638387</ele>
        <time>2022-11-14T10:13:11.955Z</time>
      </trkpt>
      <trkpt lat="45.613732" lon="7.527266">
        <ele>2372.826177</ele>
        <time>2022-11-14T10:13:33.826Z</time>
      </trkpt>
      <trkpt lat="45.613736" lon="7.527194">
        <ele>2373.231136</ele>
        <time>2022-11-14T10:13:41.153Z</time>
      </trkpt>
      <trkpt lat="45.614133" lon="7.527042">
        <ele>2376.525436</ele>
        <time>2022-11-14T10:14:44.363Z</time>
      </trkpt>
      <trkpt lat="45.613870" lon="7.526855">
        <ele>2380.153360</ele>
        <time>2022-11-14T10:15:31.445Z</time>
      </trkpt>
      <trkpt lat="45.613823" lon="7.526635">
        <ele>2383.171896</ele>
        <time>2022-11-14T10:15:57.502Z</time>
      </trkpt>
      <trkpt lat="45.613887" lon="7.526570">
        <ele>2384.644651</ele>
        <time>2022-11-14T10:16:10.708Z</time>
      </trkpt>
      <trkpt lat="45.614137" lon="7.526694">
        <ele>2389.608826</ele>
        <time>2022-11-14T10:16:56.929Z</time>
      </trkpt>
      <trkpt lat="45.614183" lon="7.526665">
        <ele>2390.551954</ele>
        <time>2022-11-14T10:17:08.595Z</time>
      </trkpt>
      <trkpt lat="45.613929" lon="7.525948">
        <ele>2401.098367</ele>
        <time>2022-11-14T10:19:30.768Z</time>
      </trkpt>
      <trkpt lat="45.613962" lon="7.525637">
        <ele>2405.226065</ele>
        <time>2022-11-14T10:20:34.148Z</time>
      </trkpt>
      <trkpt lat="45.614386" lon="7.526061">
        <ele>2416.308674</ele>
        <time>2022-11-14T10:23:08.803Z</time>
      </trkpt>
      <trkpt lat="45.614720" lon="7.526027">
        <ele>2425.240160</ele>
        <time>2022-11-14T10:24:53.632Z</time>
      </trkpt>
      <trkpt lat="45.614491" lon="7.525671">
        <ele>2434.263894</ele>
        <time>2022-11-14T10:26:39.889Z</time>
      </trkpt>
      <trkpt lat="45.614389" lon="7.525262">
        <ele>2442.365367</ele>
        <time>2022-11-14T10:28:13.045Z</time>
      </trkpt>
      <trkpt lat="45.614353" lon="7.524776">
        <ele>2451.483687</ele>
        <time>2022-11-14T10:29:54.294Z</time>
      </trkpt>
      <trkpt lat="45.614474" lon="7.524508">
        <ele>2457.435085</ele>
        <time>2022-11-14T10:30:59.213Z</time>
      </trkpt>
      <trkpt lat="45.614335" lon="7.524310">
        <ele>2461.282991</ele>
        <time>2022-11-14T10:31:57.566Z</time>
      </trkpt>
      <trkpt lat="45.614657" lon="7.524323">
        <ele>2465.933504</ele>
        <time>2022-11-14T10:33:14.936Z</time>
      </trkpt>
      <trkpt lat="45.614831" lon="7.524214">
        <ele>2468.676085</ele>
        <time>2022-11-14T10:33:52.348Z</time>
      </trkpt>
      <trkpt lat="45.614572" lon="7.523964">
        <ele>2473.187694</ele>
        <time>2022-11-14T10:34:45.520Z</time>
      </trkpt>
      <trkpt lat="45.614255" lon="7.523281">
        <ele>2481.465067</ele>
        <time>2022-11-14T10:36:17.760Z</time>
      </trkpt>
      <trkpt lat="45.614375" lon="7.523370">
        <ele>2483.416742</ele>
        <time>2022-11-14T10:36:40.749Z</time>
      </trkpt>
      <trkpt lat="45.614362" lon="7.523165">
        <ele>2485.495391</ele>
        <time>2022-11-14T10:37:05.869Z</time>
      </trkpt>
      <trkpt lat="45.614603" lon="7.523344">
        <ele>2489.123036</ele>
        <time>2022-11-14T10:37:59.355Z</time>
      </trkpt>
      <trkpt lat="45.614880" lon="7.523332">
        <ele>2492.815348</ele>
        <time>2022-11-14T10:38:55.778Z</time>
      </trkpt>
      <trkpt lat="45.615113" lon="7.523210">
        <ele>2496.121390</ele>
        <time>2022-11-14T10:39:42.750Z</time>
      </trkpt>
      <trkpt lat="45.615381" lon="7.523255">
        <ele>2499.716640</ele>
        <time>2022-11-14T10:40:33.402Z</time>
      </trkpt>
      <trkpt lat="45.615857" lon="7.523639">
        <ele>2506.998651</ele>
        <time>2022-11-14T10:42:23.963Z</time>
      </trkpt>
      <trkpt lat="45.615663" lon="7.523296">
        <ele>2510.929542</ele>
        <time>2022-11-14T10:43:22.554Z</time>
      </trkpt>
      <trkpt lat="45.614620" lon="7.521865">
        <ele>2527.925864</ele>
        <time>2022-11-14T10:47:47.872Z</time>
      </trkpt>
      <trkpt lat="45.614706" lon="7.521469">
        <ele>2531.397614</ele>
        <time>2022-11-14T10:48:30.938Z</time>
      </trkpt>
      <trkpt lat="45.614686" lon="7.521062">
        <ele>2535.092394</ele>
        <time>2022-11-14T10:49:15.670Z</time>
      </trkpt>
      <trkpt lat="45.614193" lon="7.520222">
        <ele>2545.022249</ele>
        <time>2022-11-14T10:51:26.196Z</time>
      </trkpt>
      <trkpt lat="45.614315" lon="7.519928">
        <ele>2548.117918</ele>
        <time>2022-11-14T10:52:18.689Z</time>
      </trkpt>
      <trkpt lat="45.614497" lon="7.519959">
        <ele>2550.490831</ele>
        <time>2022-11-14T10:52:58.711Z</time>
      </trkpt>
      <trkpt lat="45.614576" lon="7.519892">
        <ele>2551.680026</ele>
        <time>2022-11-14T10:53:20.738Z</time>
      </trkpt>
      <trkpt lat="45.614895" lon="7.519211">
        <ele>2561.433210</ele>
        <time>2022-11-14T10:55:32.210Z</time>
      </trkpt>
      <trkpt lat="45.615219" lon="7.518712">
        <ele>2570.422401</ele>
        <time>2022-11-14T10:57:29.563Z</time>
      </trkpt>
      <trkpt lat="45.615346" lon="7.518255">
        <ele>2576.914840</ele>
        <time>2022-11-14T10:58:55.133Z</time>
      </trkpt>
      <trkpt lat="45.615435" lon="7.518053">
        <ele>2580.066788</ele>
        <time>2022-11-14T10:59:36.708Z</time>
      </trkpt>
      <trkpt lat="45.615536" lon="7.517824">
        <ele>2583.641078</ele>
        <time>2022-11-14T11:00:23.910Z</time>
      </trkpt>
      <trkpt lat="45.615556" lon="7.517623">
        <ele>2586.321546</ele>
        <time>2022-11-14T11:00:57.581Z</time>
      </trkpt>
      <trkpt lat="45.615942" lon="7.516611">
        <ele>2595.837908</ele>
        <time>2022-11-14T11:03:47.945Z</time>
      </trkpt>
      <trkpt lat="45.615972" lon="7.516025">
        <ele>2600.337564</ele>
        <time>2022-11-14T11:04:55.509Z</time>
      </trkpt>
      <trkpt lat="45.616265" lon="7.515462">
        <ele>2605.711558</ele>
        <time>2022-11-14T11:06:11.150Z</time>
      </trkpt>
      <trkpt lat="45.616397" lon="7.515344">
        <ele>2607.416025</ele>
        <time>2022-11-14T11:06:33.966Z</time>
      </trkpt>
      <trkpt lat="45.616432" lon="7.515006">
        <ele>2608.463656</ele>
        <time>2022-11-14T11:07:08.755Z</time>
      </trkpt>
      <trkpt lat="45.616694" lon="7.514429">
        <ele>2610.256006</ele>
        <time>2022-11-14T11:08:15.809Z</time>
      </trkpt>
      <trkpt lat="45.616620" lon="7.514204">
        <ele>2610.903805</ele>
        <time>2022-11-14T11:08:40.168Z</time>
      </trkpt>
      <trkpt lat="45.616576" lon="7.513634">
        <ele>2612.397931</ele>
        <time>2022-11-14T11:09:35.704Z</time>
      </trkpt>
      <trkpt lat="45.616608" lon="7.513468">
        <ele>2612.846561</ele>
        <time>2022-11-14T11:09:52.023Z</time>
      </trkpt>
      <trkpt lat="45.616371" lon="7.512342">
        <ele>2616.666313</ele>
        <time>2022-11-14T11:11:46.846Z</time>
      </trkpt>
      <trkpt lat="45.615965" lon="7.511307">
        <ele>2621.260594</ele>
        <time>2022-11-14T11:13:47.609Z</time>
      </trkpt>
      <trkpt lat="45.615649" lon="7.510868">
        <ele>2623.699492</ele>
        <time>2022-11-14T11:14:56.413Z</time>
      </trkpt>
      <trkpt lat="45.615539" lon="7.510776">
        <ele>2624.486726</ele>
        <time>2022-11-14T11:15:16.964Z</time>
      </trkpt>
      <trkpt lat="45.615303" lon="7.510755">
        <ele>2626.927080</ele>
        <time>2022-11-14T11:15:56.074Z</time>
      </trkpt>
      <trkpt lat="45.615224" lon="7.510640">
        <ele>2628.090669</ele>
        <time>2022-11-14T11:16:15.048Z</time>
      </trkpt>
      <trkpt lat="45.614891" lon="7.510529">
        <ele>2631.619578</ele>
        <time>2022-11-14T11:17:12.852Z</time>
      </trkpt>
      <trkpt lat="45.614698" lon="7.510250">
        <ele>2634.452259</ele>
        <time>2022-11-14T11:17:59.539Z</time>
      </trkpt>
      <trkpt lat="45.613762" lon="7.509433">
        <ele>2645.856917</ele>
        <time>2022-11-14T11:21:07.381Z</time>
      </trkpt>
      <trkpt lat="45.613169" lon="7.508095">
        <ele>2657.633004</ele>
        <time>2022-11-14T11:24:14.535Z</time>
      </trkpt>
      <trkpt lat="45.612986" lon="7.508111">
        <ele>2659.581653</ele>
        <time>2022-11-14T11:24:45.099Z</time>
      </trkpt>
      <trkpt lat="45.612945" lon="7.508046">
        <ele>2660.232366</ele>
        <time>2022-11-14T11:24:54.826Z</time>
      </trkpt>
      <trkpt lat="45.612918" lon="7.507763">
        <ele>2662.408983</ele>
        <time>2022-11-14T11:25:28.618Z</time>
      </trkpt>
      <trkpt lat="45.612681" lon="7.507285">
        <ele>2667.397587</ele>
        <time>2022-11-14T11:26:38.272Z</time>
      </trkpt>
      <trkpt lat="45.612632" lon="7.507020">
        <ele>2669.731421</ele>
        <time>2022-11-14T11:27:11.777Z</time>
      </trkpt>
      <trkpt lat="45.612662" lon="7.506880">
        <ele>2670.978124</ele>
        <time>2022-11-14T11:27:30.885Z</time>
      </trkpt>
      <trkpt lat="45.612552" lon="7.506688">
        <ele>2673.091238</ele>
        <time>2022-11-14T11:28:01.923Z</time>
      </trkpt>
      <trkpt lat="45.612230" lon="7.506516">
        <ele>2677.275331</ele>
        <time>2022-11-14T11:29:07.366Z</time>
      </trkpt>
      <trkpt lat="45.611501" lon="7.505851">
        <ele>2688.004886</ele>
        <time>2022-11-14T11:31:48.960Z</time>
      </trkpt>
      <trkpt lat="45.611253" lon="7.505034">
        <ele>2695.981832</ele>
        <time>2022-11-14T11:33:52.155Z</time>
      </trkpt>
      <trkpt lat="45.611137" lon="7.504368">
        <ele>2702.129184</ele>
        <time>2022-11-14T11:35:20.839Z</time>
      </trkpt>
      <trkpt lat="45.610883" lon="7.503471">
        <ele>2710.364013</ele>
        <time>2022-11-14T11:37:15.749Z</time>
      </trkpt>
      <trkpt lat="45.610820" lon="7.503268">
        <ele>2712.131503</ele>
        <time>2022-11-14T11:37:48.221Z</time>
      </trkpt>
      <trkpt lat="45.610548" lon="7.502902">
        <ele>2716.381425</ele>
        <time>2022-11-14T11:38:50.725Z</time>
      </trkpt>
      <trkpt lat="45.610495" lon="7.502763">
        <ele>2717.641366</ele>
        <time>2022-11-14T11:39:07.101Z</time>
      </trkpt>
      <trkpt lat="45.610438" lon="7.502423">
        <ele>2720.423988</ele>
        <time>2022-11-14T11:39:55.654Z</time>
      </trkpt>
      <trkpt lat="45.610343" lon="7.502272">
        <ele>2722.040315</ele>
        <time>2022-11-14T11:40:17.638Z</time>
      </trkpt>
      <trkpt lat="45.610318" lon="7.501969">
        <ele>2724.468559</ele>
        <time>2022-11-14T11:41:01.824Z</time>
      </trkpt>
      <trkpt lat="45.610158" lon="7.501721">
        <ele>2727.153633</ele>
        <time>2022-11-14T11:41:41.629Z</time>
      </trkpt>
      <trkpt lat="45.609923" lon="7.500929">
        <ele>2734.825617</ele>
        <time>2022-11-14T11:43:28.760Z</time>
      </trkpt>
      <trkpt lat="45.609908" lon="7.500687">
        <ele>2737.000045</ele>
        <time>2022-11-14T11:43:58.253Z</time>
      </trkpt>
      <trkpt lat="45.609811" lon="7.500477">
        <ele>2739.252352</ele>
        <time>2022-11-14T11:44:30.363Z</time>
      </trkpt>
      <trkpt lat="45.609973" lon="7.500378">
        <ele>2741.506494</ele>
        <time>2022-11-14T11:45:04.591Z</time>
      </trkpt>
      <trkpt lat="45.609738" lon="7.499975">
        <ele>2746.202240</ele>
        <time>2022-11-14T11:46:12.986Z</time>
      </trkpt>
      <trkpt lat="45.609754" lon="7.499396">
        <ele>2751.617537</ele>
        <time>2022-11-14T11:47:31.752Z</time>
      </trkpt>
      <trkpt lat="45.609521" lon="7.498702">
        <ele>2760.087630</ele>
        <time>2022-11-14T11:49:21.008Z</time>
      </trkpt>
      <trkpt lat="45.609524" lon="7.498557">
        <ele>2761.683786</ele>
        <time>2022-11-14T11:49:41.926Z</time>
      </trkpt>
      <trkpt lat="45.609698" lon="7.498384">
        <ele>2765.017529</ele>
        <time>2022-11-14T11:50:24.764Z</time>
      </trkpt>
      <trkpt lat="45.609572" lon="7.498236">
        <ele>2767.582614</ele>
        <time>2022-11-14T11:51:00.212Z</time>
      </trkpt>
      <trkpt lat="45.609294" lon="7.496997">
        <ele>2783.241782</ele>
        <time>2022-11-14T11:54:17.126Z</time>
      </trkpt>
      <trkpt lat="45.609560" lon="7.496541">
        <ele>2792.498641</ele>
        <time>2022-11-14T11:55:56.691Z</time>
      </trkpt>
      <trkpt lat="45.609267" lon="7.496227">
        <ele>2800.660050</ele>
        <time>2022-11-14T11:57:47.115Z</time>
      </trkpt>
      <trkpt lat="45.609022" lon="7.496122">
        <ele>2806.360507</ele>
        <time>2022-11-14T11:59:01.058Z</time>
      </trkpt>
      <trkpt lat="45.609191" lon="7.495938">
        <ele>2811.095090</ele>
        <time>2022-11-14T11:59:59.859Z</time>
      </trkpt>
      <trkpt lat="45.609542" lon="7.495943">
        <ele>2818.902135</ele>
        <time>2022-11-14T12:01:35.001Z</time>
      </trkpt>
      <trkpt lat="45.609366" lon="7.495644">
        <ele>2824.344917</ele>
        <time>2022-11-14T12:02:47.380Z</time>
      </trkpt>
      <trkpt lat="45.609047" lon="7.495381">
        <ele>2831.677081</ele>
        <time>2022-11-14T12:04:19.142Z</time>
      </trkpt>
      <trkpt lat="45.608840" lon="7.495128">
        <ele>2837.099710</ele>
        <time>2022-11-14T12:05:21.766Z</time>
      </trkpt>
      <trkpt lat="45.608827" lon="7.495063">
        <ele>2838.041342</ele>
        <time>2022-11-14T12:05:33.510Z</time>
      </trkpt>
      <trkpt lat="45.608911" lon="7.494913">
        <ele>2840.717601</ele>
        <time>2022-11-14T12:06:03.415Z</time>
      </trkpt>
      <trkpt lat="45.608795" lon="7.494874">
        <ele>2843.090261</ele>
        <time>2022-11-14T12:06:31.976Z</time>
      </trkpt>
      <trkpt lat="45.608625" lon="7.494607">
        <ele>2848.118928</ele>
        <time>2022-11-14T12:07:32.230Z</time>
      </trkpt>
      <trkpt lat="45.608345" lon="7.494880">
        <ele>2854.883867</ele>
        <time>2022-11-14T12:08:57.984Z</time>
      </trkpt>
      <trkpt lat="45.608303" lon="7.494853">
        <ele>2855.853743</ele>
        <time>2022-11-14T12:09:08.496Z</time>
      </trkpt>
      <trkpt lat="45.608381" lon="7.494714">
        <ele>2858.479091</ele>
        <time>2022-11-14T12:09:37.531Z</time>
      </trkpt>
      <trkpt lat="45.608137" lon="7.494802">
        <ele>2863.778904</ele>
        <time>2022-11-14T12:10:30.061Z</time>
      </trkpt>
      <trkpt lat="45.608271" lon="7.494487">
        <ele>2869.210543</ele>
        <time>2022-11-14T12:11:21.777Z</time>
      </trkpt>
      <trkpt lat="45.608022" lon="7.493205">
        <ele>2888.812944</ele>
        <time>2022-11-14T12:15:23.677Z</time>
      </trkpt>
      <trkpt lat="45.607923" lon="7.492954">
        <ele>2892.459813</ele>
        <time>2022-11-14T12:16:33.244Z</time>
      </trkpt>
      <trkpt lat="45.607870" lon="7.492243">
        <ele>2892.459813</ele>
        <time>2022-11-14T12:18:52.474Z</time>
      </trkpt>
      <trkpt lat="45.607725" lon="7.491838">
        <ele>2892.459813</ele>
        <time>2022-11-14T12:20:25.107Z</time>
      </trkpt>
      <trkpt lat="45.607680" lon="7.491525">
        <ele>2892.459813</ele>
        <time>2022-11-14T12:21:12.257Z</time>
      </trkpt>
      <trkpt lat="45.607655" lon="7.491553">
        <ele>2892.459813</ele>
        <time>2022-11-14T12:21:40.570Z</time>
      </trkpt>
    </trkseg>
  </trk>
</gpx>